createdAt,value
2022-08-12T00:01:07.024Z,61.10
2022-08-12T00:03:53.339Z,62.00
2022-08-12T00:06:40.208Z,62.60
2022-08-12T00:09:26.906Z,62.40
2022-08-12T00:12:13.304Z,62.80
2022-08-12T00:15:02.411Z,61.90
2022-08-12T00:17:48.421Z,62.50
2022-08-12T00:20:34.684Z,63.00
2022-08-12T00:23:20.540Z,63.10
2022-08-12T00:26:23.017Z,63.70
2022-08-12T00:29:12.280Z,63.20
2022-08-12T00:32:01.196Z,63.90
2022-08-12T00:34:47.806Z,64.40
2022-08-12T00:37:35.730Z,65.00
2022-08-12T00:40:23.250Z,64.80
2022-08-12T00:42:53.561Z,64.60
2022-08-12T00:45:22.059Z,64.80
2022-08-12T00:47:54.344Z,65.40
2022-08-12T00:50:24.136Z,65.00
2022-08-12T00:52:54.349Z,65.40
2022-08-12T00:55:23.549Z,66.10
2022-08-12T00:57:52.301Z,66.20
2022-08-12T01:00:24.124Z,65.70
2022-08-12T01:02:58.541Z,66.40
2022-08-12T01:05:45.279Z,66.70
2022-08-12T01:08:45.844Z,67.30
2022-08-12T01:11:32.916Z,67.20
2022-08-12T01:14:03.401Z,67.00
2022-08-12T01:16:32.416Z,67.40
2022-08-12T01:19:03.597Z,68.70
2022-08-12T01:22:07.073Z,68.30
2022-08-12T01:24:55.805Z,69.10
2022-08-12T01:27:27.165Z,69.00
2022-08-12T01:29:57.970Z,69.40
2022-08-12T01:32:29.937Z,69.60
2022-08-12T01:35:06.943Z,69.70
2022-08-12T01:37:39.162Z,70.10
2022-08-12T01:40:34.260Z,70.20
2022-08-12T01:43:07.578Z,70.80
2022-08-12T01:45:43.474Z,69.40
2022-08-12T01:48:39.668Z,69.90
2022-08-12T01:52:15.238Z,70.30
2022-08-12T01:54:29.427Z,70.30
2022-08-12T01:57:10.900Z,70.30
2022-08-12T01:59:49.798Z,70.90
2022-08-12T02:02:20.575Z,71.30
2022-08-12T02:05:22.817Z,71.60
2022-08-12T02:08:26.846Z,72.50
2022-08-12T02:11:18.618Z,72.70
2022-08-12T02:14:30.734Z,72.80
2022-08-12T02:17:17.029Z,73.20
2022-08-12T02:20:07.948Z,73.70
2022-08-12T02:22:41.018Z,74.10
2022-08-12T02:25:12.315Z,74.40
2022-08-12T02:27:45.554Z,73.30
2022-08-12T02:30:19.700Z,75.00
2022-08-12T02:32:50.876Z,73.80
2022-08-12T02:35:21.504Z,74.20
2022-08-12T02:37:54.155Z,75.80
2022-08-12T02:40:24.107Z,74.90
2022-08-12T02:42:56.991Z,74.80
2022-08-12T02:45:34.562Z,75.10
2022-08-12T02:48:08.765Z,75.00
2022-08-12T02:50:44.149Z,75.70
2022-08-12T02:53:13.585Z,76.10
2022-08-12T02:55:42.700Z,75.90
2022-08-12T02:58:14.621Z,76.30
2022-08-12T03:00:46.001Z,77.10
2022-08-12T03:03:19.604Z,77.00
2022-08-12T03:06:02.588Z,77.00
2022-08-12T03:08:39.359Z,77.00
2022-08-12T03:11:15.268Z,78.20
2022-08-12T03:13:53.019Z,78.40
2022-08-12T03:16:23.770Z,78.80
2022-08-12T03:18:52.297Z,79.60
2022-08-12T03:21:59.912Z,79.30
2022-08-12T03:24:13.827Z,79.20
2022-08-12T03:26:46.312Z,80.30
2022-08-12T03:29:15.575Z,80.00
2022-08-12T03:31:45.070Z,80.60
2022-08-12T03:34:13.371Z,80.90
2022-08-12T03:36:43.924Z,81.10
2022-08-12T03:39:36.334Z,81.60
2022-08-12T03:42:22.542Z,81.60
2022-08-12T03:45:31.241Z,81.70
2022-08-12T03:48:25.428Z,82.80
2022-08-12T03:51:12.378Z,82.50
2022-08-12T03:53:58.826Z,83.40
2022-08-12T03:56:44.862Z,83.10
2022-08-12T03:59:30.702Z,83.50
2022-08-12T04:02:00.242Z,84.60
2022-08-12T04:04:33.871Z,84.10
2022-08-12T04:07:03.147Z,83.80
2022-08-12T04:09:31.618Z,84.60
2022-08-12T04:12:17.016Z,85.20
2022-08-12T04:14:45.488Z,86.10
2022-08-12T04:17:14.358Z,85.60
2022-08-12T04:19:44.078Z,86.40
2022-08-12T04:22:12.441Z,86.00
2022-08-12T04:24:41.707Z,86.20
2022-08-12T04:27:12.539Z,86.10
2022-08-12T04:30:21.029Z,86.10
2022-08-12T04:32:29.404Z,85.80
2022-08-12T04:34:59.003Z,86.50
2022-08-12T04:37:27.288Z,87.40
2022-08-12T04:39:55.547Z,87.80
2022-08-12T04:42:23.709Z,88.10
2022-08-12T04:44:51.797Z,87.90
2022-08-12T04:47:21.891Z,87.30
2022-08-12T04:49:50.906Z,88.30
2022-08-12T04:52:25.392Z,88.90
2022-08-12T04:54:54.965Z,88.50
2022-08-12T04:57:23.331Z,88.60
2022-08-12T04:59:51.405Z,88.80
2022-08-12T05:02:22.925Z,89.50
2022-08-12T05:04:52.880Z,89.90
2022-08-12T05:07:24.170Z,90.20
2022-08-12T05:09:59.698Z,90.40
2022-08-12T05:12:36.395Z,90.70
2022-08-12T05:15:19.811Z,91.20
2022-08-12T05:17:56.040Z,91.20
2022-08-12T05:20:26.066Z,91.60
2022-08-12T05:23:12.924Z,91.50
2022-08-12T05:25:43.716Z,91.50
2022-08-12T05:28:14.315Z,91.70
2022-08-12T05:30:43.616Z,92.10
2022-08-12T05:33:13.549Z,91.90
2022-08-12T05:35:45.142Z,92.30
2022-08-12T05:38:36.484Z,92.20
2022-08-12T05:41:19.055Z,92.50
2022-08-12T05:43:51.224Z,92.40
2022-08-12T05:46:20.609Z,93.30
2022-08-12T05:48:50.443Z,93.50
2022-08-12T05:51:19.426Z,94.40
2022-08-12T05:53:49.317Z,94.60
2022-08-12T05:56:23.208Z,94.50
2022-08-12T05:58:54.496Z,93.00
2022-08-12T06:02:10.330Z,91.30
2022-08-12T06:04:14.180Z,90.70
2022-08-12T06:06:43.225Z,88.00
2022-08-12T06:09:13.185Z,83.80
2022-08-12T06:12:05.051Z,82.00
2022-08-12T06:14:36.185Z,80.80
2022-08-12T06:17:05.910Z,77.50
2022-08-12T06:20:27.566Z,77.20
2022-08-12T06:22:27.048Z,74.60
2022-08-12T06:24:56.828Z,72.70
2022-08-12T06:27:25.117Z,71.70
2022-08-12T06:30:09.416Z,68.60
2022-08-12T06:32:51.973Z,66.30
2022-08-12T06:35:48.100Z,58.60
2022-08-12T06:38:19.418Z,59.40
2022-08-12T06:41:09.095Z,56.90
2022-08-12T06:44:05.776Z,52.20
2022-08-12T06:46:27.613Z,51.20
2022-08-12T06:48:59.158Z,49.80
2022-08-12T06:51:30.199Z,50.80
2022-08-12T06:53:58.885Z,48.00
2022-08-12T06:56:59.788Z,48.20
2022-08-12T06:59:17.011Z,47.30
2022-08-12T07:01:50.868Z,46.10
2022-08-12T07:04:37.869Z,44.70
2022-08-12T07:07:07.878Z,44.70
2022-08-12T07:10:04.298Z,44.30
2022-08-12T07:12:27.735Z,45.00
2022-08-12T07:14:57.702Z,41.70
2022-08-12T07:17:36.713Z,44.30
2022-08-12T07:20:09.940Z,44.70
2022-08-12T07:22:39.802Z,42.00
2022-08-12T07:25:26.791Z,41.00
2022-08-12T07:27:57.762Z,39.60
2022-08-12T07:30:26.311Z,40.90
2022-08-12T07:32:58.573Z,42.90
2022-08-12T07:35:30.658Z,40.60
2022-08-12T07:38:00.778Z,40.50
2022-08-12T07:40:30.733Z,40.10
2022-08-12T07:43:00.223Z,39.30
2022-08-12T07:45:28.375Z,41.00
2022-08-12T07:47:56.498Z,37.50
2022-08-12T07:50:24.638Z,38.20
2022-08-12T07:52:52.797Z,38.10
2022-08-12T07:55:20.914Z,38.10
2022-08-12T07:57:57.698Z,37.70
2022-08-12T08:00:31.639Z,37.90
2022-08-12T08:02:59.982Z,37.40
2022-08-12T08:05:33.564Z,37.10
2022-08-12T08:08:03.752Z,37.20
2022-08-12T08:10:33.355Z,35.70
2022-08-12T08:13:05.027Z,37.70
2022-08-12T08:16:01.699Z,35.50
2022-08-12T08:18:27.637Z,36.50
2022-08-12T08:20:57.765Z,38.20
2022-08-12T08:23:46.459Z,35.30
2022-08-12T08:26:15.986Z,36.00
2022-08-12T08:28:44.589Z,33.50
2022-08-12T08:31:14.925Z,35.20
2022-08-12T08:34:05.127Z,36.10
2022-08-12T08:36:31.183Z,35.90
2022-08-12T08:38:59.318Z,37.40
2022-08-12T08:42:15.751Z,35.40
2022-08-12T08:44:36.346Z,36.30
2022-08-12T08:47:06.683Z,35.50
2022-08-12T08:49:37.274Z,33.20
2022-08-12T08:52:07.063Z,33.50
2022-08-12T08:54:37.552Z,32.50
2022-08-12T08:57:08.947Z,32.90
2022-08-12T08:59:37.349Z,33.40
2022-08-12T09:02:07.744Z,34.00
2022-08-12T09:05:13.509Z,33.80
2022-08-12T09:07:51.643Z,34.20
2022-08-12T09:10:30.654Z,34.00
2022-08-12T09:13:23.823Z,34.60
2022-08-12T09:15:59.580Z,33.40
2022-08-12T09:18:33.593Z,32.30
2022-08-12T09:21:06.359Z,31.90
2022-08-12T09:24:01.058Z,34.40
2022-08-12T09:29:14.140Z,33.30
2022-08-12T09:32:06.611Z,32.00
2022-08-12T09:34:34.177Z,34.80
2022-08-12T09:37:18.841Z,32.10
2022-08-12T09:40:04.553Z,30.90
2022-08-12T09:46:14.125Z,31.10
2022-08-12T09:48:35.816Z,32.10
2022-08-12T09:51:10.778Z,29.50
2022-08-12T09:53:45.643Z,29.00
2022-08-12T09:56:58.598Z,29.40
2022-08-12T09:59:09.940Z,30.00
2022-08-12T10:02:44.048Z,30.70
2022-08-12T10:04:30.333Z,30.40
2022-08-12T10:06:59.941Z,30.90
2022-08-12T10:09:58.155Z,30.50
2022-08-12T10:12:35.673Z,32.00
2022-08-12T10:15:05.055Z,30.20
2022-08-12T10:17:34.591Z,30.60
2022-08-12T10:20:22.678Z,31.40
2022-08-12T10:23:00.144Z,30.60
2022-08-12T10:26:33.943Z,31.30
2022-08-12T10:29:01.664Z,31.70
2022-08-12T10:31:47.423Z,32.00
2022-08-12T10:34:25.846Z,31.10
2022-08-12T10:36:58.594Z,30.80
2022-08-12T10:40:00.164Z,32.50
2022-08-12T10:42:39.134Z,31.80
2022-08-12T10:45:17.214Z,31.20
2022-08-12T10:48:20.056Z,31.20
2022-08-12T10:51:01.500Z,31.40
2022-08-12T10:53:44.197Z,30.00
2022-08-12T10:56:18.237Z,30.90
2022-08-12T10:58:47.964Z,32.40
2022-08-12T11:01:49.260Z,30.50
2022-08-12T11:04:27.265Z,30.80
2022-08-12T11:07:06.417Z,32.00
2022-08-12T11:10:00.574Z,32.60
2022-08-12T11:12:57.217Z,33.50
2022-08-12T11:15:33.264Z,32.40
2022-08-12T11:18:18.711Z,34.00
2022-08-12T11:20:49.261Z,31.00
2022-08-12T11:23:25.654Z,31.10
2022-08-12T11:26:07.444Z,31.90
2022-08-12T11:28:38.881Z,34.00
2022-08-12T11:31:14.184Z,33.20
2022-08-12T11:34:04.545Z,33.70
2022-08-12T11:36:31.686Z,35.00
2022-08-12T11:39:01.357Z,35.40
2022-08-12T11:41:34.585Z,35.00
2022-08-12T11:44:35.170Z,36.90
2022-08-12T11:46:54.656Z,34.60
2022-08-12T11:49:31.294Z,35.20
2022-08-12T11:52:02.550Z,36.80
2022-08-12T11:54:31.332Z,35.80
2022-08-12T11:57:01.964Z,36.40
2022-08-12T12:02:21.802Z,37.10
2022-08-12T12:04:52.571Z,37.00
2022-08-12T12:08:36.558Z,35.70
2022-08-12T12:10:13.005Z,38.00
2022-08-12T12:12:48.576Z,36.30
2022-08-12T12:15:25.466Z,37.10
2022-08-12T12:18:05.689Z,35.70
2022-08-12T12:20:36.216Z,37.80
2022-08-12T12:23:04.918Z,37.60
2022-08-12T12:26:07.323Z,38.80
2022-08-12T12:28:36.826Z,34.90
2022-08-12T12:31:15.060Z,35.90
2022-08-12T12:33:58.112Z,34.30
2022-08-12T12:36:29.971Z,34.00
2022-08-12T12:39:00.088Z,34.50
2022-08-12T12:42:41.619Z,34.30
2022-08-12T12:44:25.842Z,34.90
2022-08-12T12:47:29.325Z,35.10
2022-08-12T12:49:57.604Z,38.20
2022-08-12T12:52:26.888Z,35.90
2022-08-12T12:54:55.732Z,35.40
2022-08-12T12:57:59.101Z,36.70
2022-08-12T13:00:15.975Z,35.30
2022-08-12T13:02:53.788Z,34.40
2022-08-12T13:05:27.901Z,34.60
2022-08-12T13:08:01.104Z,35.00
2022-08-12T13:10:36.839Z,34.70
2022-08-12T13:14:06.407Z,34.40
2022-08-12T13:15:59.247Z,34.10
2022-08-12T13:18:31.462Z,33.90
2022-08-12T13:20:59.841Z,33.50
2022-08-12T13:23:35.906Z,35.30
2022-08-12T13:26:07.665Z,35.10
2022-08-12T13:28:45.643Z,36.70
2022-08-12T13:31:25.246Z,34.90
2022-08-12T13:34:34.027Z,34.70
2022-08-12T13:36:45.281Z,33.50
2022-08-12T13:39:16.316Z,33.40
2022-08-12T13:41:44.717Z,35.70
2022-08-12T13:44:13.058Z,34.70
2022-08-12T13:46:42.126Z,34.10
2022-08-12T13:49:17.617Z,34.50
2022-08-12T13:52:01.898Z,35.30
2022-08-12T13:54:32.779Z,34.90
2022-08-12T13:57:01.480Z,34.30
2022-08-12T13:59:30.910Z,35.10
2022-08-12T14:02:18.420Z,33.80
2022-08-12T14:04:56.372Z,33.70
2022-08-12T14:07:26.015Z,33.80
2022-08-12T14:10:16.296Z,33.30
2022-08-12T14:12:54.525Z,33.60
2022-08-12T14:15:35.066Z,33.30
2022-08-12T14:18:14.652Z,33.20
2022-08-12T14:20:47.840Z,33.70
2022-08-12T14:24:04.185Z,32.50
2022-08-12T14:26:12.013Z,32.30
2022-08-12T14:28:45.038Z,32.50
2022-08-12T14:31:31.595Z,33.10
2022-08-12T14:34:04.989Z,33.50
2022-08-12T14:36:34.705Z,33.50
2022-08-12T14:39:06.533Z,34.50
2022-08-12T14:41:36.605Z,33.70
2022-08-12T14:44:57.584Z,34.10
2022-08-12T14:47:07.948Z,34.60
2022-08-12T14:50:41.443Z,34.40
2022-08-12T14:53:15.353Z,34.80
2022-08-12T14:58:03.676Z,34.60
2022-08-12T15:00:50.965Z,33.90
2022-08-12T15:03:52.790Z,34.00
2022-08-12T15:06:44.321Z,34.30
2022-08-12T15:09:06.863Z,34.20
2022-08-12T15:11:55.192Z,34.60
2022-08-12T15:14:25.272Z,34.90
2022-08-12T15:16:54.091Z,35.30
2022-08-12T15:20:11.905Z,35.00
2022-08-12T15:22:36.973Z,35.20
2022-08-12T15:24:59.991Z,35.50
2022-08-12T15:28:09.313Z,34.90
2022-08-12T15:30:19.878Z,35.30
2022-08-12T15:32:51.222Z,35.00
2022-08-12T15:35:19.729Z,35.90
2022-08-12T15:38:10.044Z,35.30
2022-08-12T15:40:46.862Z,35.80
2022-08-12T15:43:51.522Z,36.20
2022-08-12T15:46:07.465Z,36.00
2022-08-12T15:48:46.889Z,35.40
2022-08-12T15:51:57.588Z,36.50
2022-08-12T15:54:30.947Z,35.00
2022-08-12T15:57:05.444Z,34.70
2022-08-12T16:00:00.232Z,35.20
2022-08-12T16:02:21.825Z,35.00
2022-08-12T16:04:51.451Z,35.00
2022-08-12T16:07:26.037Z,34.80
2022-08-12T16:10:06.781Z,35.30
2022-08-12T16:12:41.945Z,34.90
2022-08-12T16:15:13.372Z,34.20
2022-08-12T16:18:20.398Z,35.40
2022-08-12T16:20:34.055Z,35.20
2022-08-12T16:23:21.441Z,34.40
2022-08-12T16:26:02.743Z,34.40
2022-08-12T16:28:35.477Z,34.00
2022-08-12T16:31:05.731Z,34.50
2022-08-12T16:33:59.467Z,33.90
2022-08-12T16:36:30.213Z,34.20
2022-08-12T16:39:01.429Z,34.40
2022-08-12T16:41:38.127Z,34.40
2022-08-12T16:44:09.778Z,34.30
2022-08-12T16:46:39.193Z,34.10
2022-08-12T16:49:08.836Z,34.20
2022-08-12T16:51:46.542Z,34.70
2022-08-12T16:54:18.342Z,35.10
2022-08-12T16:56:50.727Z,35.90
2022-08-12T16:59:52.824Z,35.60
2022-08-12T17:02:18.102Z,35.90
2022-08-12T17:05:03.242Z,37.60
2022-08-12T17:07:38.158Z,36.30
2022-08-12T17:10:18.317Z,35.00
2022-08-12T17:13:10.289Z,35.30
2022-08-12T17:15:57.366Z,35.20
2022-08-12T17:18:42.574Z,35.00
2022-08-12T17:21:15.249Z,34.70
2022-08-12T17:23:53.791Z,35.00
2022-08-12T17:26:27.976Z,35.40
2022-08-12T17:28:59.165Z,35.30
2022-08-12T17:32:01.673Z,35.10
2022-08-12T17:34:33.413Z,35.90
2022-08-12T17:37:05.550Z,36.80
2022-08-12T17:40:06.709Z,36.70
2022-08-12T17:42:34.907Z,36.70
2022-08-12T17:45:17.863Z,36.70
2022-08-12T17:48:00.110Z,37.10
2022-08-12T17:50:32.952Z,37.20
2022-08-12T17:53:03.152Z,36.80
2022-08-12T17:55:40.678Z,37.30
2022-08-12T17:58:13.980Z,38.80
2022-08-12T18:00:45.426Z,39.40
2022-08-12T18:04:06.977Z,40.80
2022-08-12T18:06:13.696Z,41.40
2022-08-12T18:08:55.049Z,42.30
2022-08-12T18:12:04.320Z,43.10
2022-08-12T18:14:32.984Z,42.80
2022-08-12T18:17:08.551Z,42.60
2022-08-12T18:20:03.688Z,44.50
2022-08-12T18:22:39.474Z,44.10
2022-08-12T18:26:09.869Z,44.00
2022-08-12T18:28:16.940Z,44.60
2022-08-12T18:30:53.014Z,44.60
2022-08-12T18:33:25.840Z,45.50
2022-08-12T18:35:58.323Z,45.40
2022-08-12T18:38:27.749Z,45.10
2022-08-12T18:41:21.547Z,45.80
2022-08-12T18:44:00.041Z,45.80
2022-08-12T18:46:54.255Z,45.60
2022-08-12T18:49:39.209Z,46.00
2022-08-12T18:52:11.758Z,46.50
2022-08-12T18:54:48.031Z,47.10
2022-08-12T18:57:19.673Z,47.40
2022-08-12T19:00:21.301Z,47.40
2022-08-12T19:02:52.554Z,47.60
2022-08-12T19:05:52.626Z,47.70
2022-08-12T19:08:14.839Z,47.90
2022-08-12T19:10:50.167Z,48.00
2022-08-12T19:13:37.556Z,48.10
2022-08-12T19:16:11.335Z,48.50
2022-08-12T19:18:44.815Z,48.70
2022-08-12T19:21:15.990Z,49.20
2022-08-12T19:24:06.415Z,49.30
2022-08-12T19:26:34.493Z,49.40
2022-08-12T19:29:04.928Z,49.60
2022-08-12T19:31:56.594Z,50.20
2022-08-12T19:35:32.939Z,50.40
2022-08-12T19:37:26.712Z,50.70
2022-08-12T19:40:10.277Z,51.20
2022-08-12T19:42:53.351Z,50.90
2022-08-12T19:45:22.761Z,51.40
2022-08-12T19:47:51.106Z,51.20
2022-08-12T19:50:20.107Z,51.20
2022-08-12T19:52:53.541Z,51.50
2022-08-12T19:55:27.389Z,51.70
2022-08-12T19:58:02.982Z,52.50
2022-08-12T20:00:34.769Z,52.70
2022-08-12T20:03:06.741Z,53.10
2022-08-12T20:06:04.864Z,53.20
2022-08-12T20:08:32.845Z,53.40
2022-08-12T20:12:15.175Z,53.60
2022-08-12T20:14:01.134Z,54.60
2022-08-12T20:16:51.679Z,54.80
2022-08-12T20:19:23.295Z,54.70
2022-08-12T20:21:51.851Z,55.40
2022-08-12T20:24:23.245Z,53.60
2022-08-12T20:27:00.749Z,54.30
2022-08-12T20:29:35.539Z,54.90
2022-08-12T20:32:05.943Z,54.50
2022-08-12T20:34:38.922Z,54.70
2022-08-12T20:37:07.526Z,55.00
2022-08-12T20:39:53.526Z,54.50
2022-08-12T20:42:26.150Z,54.70
2022-08-12T20:44:59.703Z,54.90
2022-08-12T20:47:41.963Z,55.20
2022-08-12T20:50:15.461Z,55.80
2022-08-12T20:52:48.962Z,55.50
2022-08-12T20:55:19.364Z,55.40
2022-08-12T20:58:01.863Z,55.60
2022-08-12T21:00:33.557Z,56.70
2022-08-12T21:03:16.015Z,56.30
2022-08-12T21:06:12.139Z,56.00
2022-08-12T21:08:42.918Z,56.10
2022-08-12T21:11:12.939Z,57.30
2022-08-12T21:13:45.180Z,57.10
2022-08-12T21:16:15.899Z,57.60
2022-08-12T21:19:08.073Z,57.00
2022-08-12T21:21:50.215Z,58.60
2022-08-12T21:24:20.287Z,58.50
2022-08-12T21:27:03.346Z,57.60
2022-08-12T21:29:39.966Z,57.80
2022-08-12T21:32:37.301Z,58.60
2022-08-12T21:35:07.200Z,58.70
2022-08-12T21:37:37.367Z,59.10
2022-08-12T21:40:13.268Z,59.40
2022-08-12T21:42:43.242Z,59.50
2022-08-12T21:45:47.442Z,59.40
2022-08-12T21:48:08.613Z,59.50
2022-08-12T21:50:39.991Z,60.20
2022-08-12T21:53:12.543Z,60.30
2022-08-12T21:55:45.598Z,61.80
2022-08-12T21:58:18.274Z,60.80
2022-08-12T22:00:47.840Z,61.90
2022-08-12T22:04:04.358Z,61.40
2022-08-12T22:06:42.907Z,63.00
2022-08-12T22:09:15.846Z,61.60
2022-08-12T22:11:49.032Z,64.20
2022-08-12T22:14:25.438Z,62.90
2022-08-12T22:17:01.158Z,64.50
2022-08-12T22:19:33.710Z,65.40
2022-08-12T22:22:05.081Z,64.00
2022-08-12T22:24:34.208Z,64.50
2022-08-12T22:27:14.355Z,65.10
2022-08-12T22:30:26.050Z,65.30
2022-08-12T22:32:55.914Z,64.30
2022-08-12T22:35:47.549Z,63.80
2022-08-12T22:38:23.522Z,65.40
2022-08-12T22:40:53.714Z,64.90
2022-08-12T22:43:58.730Z,65.90
2022-08-12T22:46:52.591Z,65.50
2022-08-12T22:49:36.368Z,66.80
2022-08-12T22:52:13.477Z,65.60
2022-08-12T22:55:02.523Z,67.90
2022-08-12T22:57:53.291Z,66.60
2022-08-12T23:00:25.335Z,68.20
2022-08-12T23:03:00.353Z,66.50
2022-08-12T23:05:56.649Z,67.50
2022-08-12T23:08:29.678Z,68.30
2022-08-12T23:10:59.153Z,70.40
2022-08-12T23:13:45.298Z,69.40
2022-08-12T23:16:28.434Z,70.20
2022-08-12T23:19:10.852Z,68.90
2022-08-12T23:22:03.818Z,69.60
2022-08-12T23:24:39.841Z,69.10
2022-08-12T23:27:44.495Z,69.40
2022-08-12T23:30:19.529Z,69.80
2022-08-12T23:32:59.562Z,70.00
2022-08-12T23:35:45.518Z,69.80
2022-08-12T23:38:30.924Z,71.80
2022-08-12T23:41:02.055Z,71.20
2022-08-12T23:43:38.363Z,70.70
2022-08-12T23:46:09.781Z,72.00
2022-08-12T23:48:38.342Z,71.80
2022-08-12T23:51:22.635Z,72.90
2022-08-12T23:53:59.840Z,72.30
2022-08-12T23:56:32.794Z,72.10
2022-08-12T23:59:01.962Z,72.00
